Time;durP1;ratioP1;P1;durP2;ratioP2;P2;SDS_P1;SDS_P2;PMS_P1;PMS_P2;Temp;Humidity;BMP_temperature;BMP_pressure;BME280_temperature;BME280_humidity;BME280_pressure;Samples;Min_cycle;Max_cycle;Signal;HPM_P1;HPM_P2
2022/10/27 00:00:42;;;;;;;8.02;3.42;;;13.80;90.60;;;;;;5053060;28;20078;-49
2022/10/27 00:03:10;;;;;;;6.00;3.67;;;13.80;90.50;;;;;;5053715;28;20095;-50
2022/10/27 00:05:36;;;;;;;6.93;4.03;;;13.70;90.60;;;;;;5052955;28;20515;-49
2022/10/27 00:08:01;;;;;;;4.60;2.78;;;13.80;90.70;;;;;;5051687;28;20025;-50
2022/10/27 00:10:27;;;;;;;9.25;3.10;;;13.80;90.60;;;;;;5052966;28;20024;-49
2022/10/27 00:12:53;;;;;;;6.13;3.20;;;13.80;90.60;;;;;;5052763;28;20113;-49
2022/10/27 00:15:18;;;;;;;10.27;3.67;;;13.80;90.60;;;;;;5053153;28;20028;-52
2022/10/27 00:17:44;;;;;;;8.77;3.78;;;13.80;90.60;;;;;;5051631;28;20029;-49
2022/10/27 00:20:11;;;;;;;6.57;3.15;;;13.90;90.50;;;;;;5052825;28;20104;-50
2022/10/27 00:22:36;;;;;;;6.13;3.42;;;13.90;90.40;;;;;;5053030;28;20040;-50
2022/10/27 00:25:03;;;;;;;9.02;3.42;;;13.90;90.30;;;;;;5053037;28;20124;-49
2022/10/27 00:27:29;;;;;;;7.50;3.05;;;13.90;90.40;;;;;;5052903;28;20398;-50
2022/10/27 00:29:55;;;;;;;8.13;3.65;;;14.00;90.40;;;;;;5052770;28;20389;-48
2022/10/27 00:32:21;;;;;;;6.53;3.13;;;14.00;90.30;;;;;;5052372;28;20040;-48
2022/10/27 00:34:46;;;;;;;9.60;3.25;;;14.10;90.10;;;;;;5052886;28;20021;-51
2022/10/27 00:37:12;;;;;;;8.13;3.53;;;14.10;90.00;;;;;;5052703;28;20048;-51
2022/10/27 00:39:37;;;;;;;4.80;2.88;;;14.10;89.90;;;;;;5052404;28;20029;-50
2022/10/27 00:42:03;;;;;;;6.45;3.30;;;14.10;89.80;;;;;;5052466;28;20442;-48
2022/10/27 00:44:29;;;;;;;17.35;5.18;;;14.10;89.80;;;;;;5052513;28;20033;-49
2022/10/27 00:46:56;;;;;;;6.13;3.20;;;14.10;89.90;;;;;;5052509;28;20025;-53
2022/10/27 00:49:27;;;;;;;8.90;3.22;;;14.00;89.70;;;;;;5052486;28;20044;-49
2022/10/27 00:51:58;;;;;;;7.28;2.72;;;14.10;89.70;;;;;;5052660;28;20421;-50
2022/10/27 00:54:27;;;;;;;5.70;3.17;;;14.10;89.70;;;;;;5054727;28;20047;-49
2022/10/27 00:56:54;;;;;;;8.68;3.22;;;14.10;89.60;;;;;;5056649;28;20028;-49
2022/10/27 00:59:20;;;;;;;4.65;2.83;;;14.20;89.60;;;;;;5056597;28;20062;-48
2022/10/27 01:01:49;;;;;;;10.48;3.53;;;14.10;89.70;;;;;;5056543;28;20349;-48
2022/10/27 01:04:54;;;;;;;11.88;2.83;;;14.10;89.70;;;;;;5056430;28;20068;-48
2022/10/27 01:07:21;;;;;;;6.57;3.15;;;14.10;89.80;;;;;;5056505;28;20055;-50
2022/10/27 01:09:47;;;;;;;6.82;3.17;;;14.10;89.80;;;;;;5056341;28;20108;-49
2022/10/27 01:12:13;;;;;;;10.15;3.30;;;14.10;89.90;;;;;;5056039;28;20025;-49
2022/10/27 01:14:39;;;;;;;6.07;2.75;;;14.10;90.00;;;;;;5054986;28;20079;-48
2022/10/27 01:17:33;;;;;;;10.38;3.30;;;14.10;90.10;;;;;;5056038;28;20052;-48
2022/10/27 01:20:08;;;;;;;8.95;3.28;;;14.00;90.10;;;;;;5054707;28;20025;-47
2022/10/27 01:22:50;;;;;;;12.40;3.88;;;14.10;90.00;;;;;;5055974;28;20025;-50
2022/10/27 01:25:31;;;;;;;6.90;4.38;;;14.10;90.00;;;;;;5055944;28;20029;-49
2022/10/27 01:28:02;;;;;;;6.97;3.13;;;14.10;90.20;;;;;;5056027;28;20480;-49
2022/10/27 01:30:31;;;;;;;8.38;3.78;;;14.10;90.20;;;;;;5055727;28;20451;-49
2022/10/27 01:33:44;;;;;;;8.65;3.53;;;14.00;90.20;;;;;;5055397;28;20096;-48
2022/10/27 01:36:18;;;;;;;13.52;4.00;;;14.00;90.30;;;;;;5055409;28;20135;-48
2022/10/27 01:39:06;;;;;;;8.07;3.28;;;14.00;90.30;;;;;;5056089;28;20415;-49
2022/10/27 01:41:53;;;;;;;7.13;3.50;;;13.90;90.40;;;;;;5056067;28;20080;-48
2022/10/27 01:44:27;;;;;;;5.07;2.95;;;14.00;90.50;;;;;;5056013;28;20430;-51
2022/10/27 01:46:54;;;;;;;7.90;3.00;;;14.00;90.50;;;;;;5055882;28;20381;-50
2022/10/27 01:49:20;;;;;;;9.80;3.95;;;14.00;90.50;;;;;;5055731;28;20021;-51
2022/10/27 01:51:47;;;;;;;8.93;4.13;;;13.90;90.50;;;;;;5055673;28;20021;-48
2022/10/27 01:54:13;;;;;;;6.43;3.08;;;13.90;90.60;;;;;;5055920;28;20032;-49
2022/10/27 01:56:46;;;;;;;6.00;3.30;;;13.90;90.70;;;;;;5055531;28;20021;-50
2022/10/27 01:59:33;;;;;;;5.68;2.92;;;13.90;90.80;;;;;;5054411;28;20032;-49
2022/10/27 02:02:06;;;;;;;5.97;3.10;;;13.90;90.90;;;;;;5054175;28;20028;-50
2022/10/27 02:04:52;;;;;;;12.48;3.10;;;14.00;90.70;;;;;;5055153;28;20105;-52
2022/10/27 02:07:18;;;;;;;8.02;3.30;;;14.00;90.60;;;;;;5055692;28;20108;-50
2022/10/27 02:09:53;;;;;;;15.93;4.70;;;14.00;90.50;;;;;;5055337;28;20104;-51
2022/10/27 02:12:29;;;;;;;6.45;4.03;;;14.10;90.50;;;;;;5055236;28;20543;-49
2022/10/27 02:14:58;;;;;;;9.57;4.53;;;14.10;90.50;;;;;;5055447;28;20192;-50
2022/10/27 02:17:31;;;;;;;7.50;3.80;;;14.10;90.40;;;;;;5055045;28;20116;-50
2022/10/27 02:19:59;;;;;;;6.25;3.17;;;14.10;90.40;;;;;;5054926;28;20025;-49
2022/10/27 02:22:28;;;;;;;11.13;4.50;;;14.00;90.50;;;;;;5054884;28;20025;-49
2022/10/27 02:24:54;;;;;;;4.95;3.10;;;13.90;90.50;;;;;;5054853;28;20056;-48
2022/10/27 02:27:44;;;;;;;6.78;3.55;;;13.80;90.70;;;;;;5053577;28;20036;-48
2022/10/27 02:30:10;;;;;;;6.60;3.15;;;13.70;90.80;;;;;;5055305;28;20380;-49
2022/10/27 02:32:36;;;;;;;7.72;3.53;;;13.70;91.00;;;;;;5054536;28;20106;-49
2022/10/27 02:35:04;;;;;;;9.60;3.72;;;13.60;91.20;;;;;;5055406;28;20025;-48
2022/10/27 02:37:33;;;;;;;7.32;3.15;;;13.50;91.40;;;;;;5054884;28;20108;-48
2022/10/27 02:39:59;;;;;;;4.50;2.70;;;13.50;91.50;;;;;;5054614;28;20043;-48
2022/10/27 02:42:25;;;;;;;9.82;3.33;;;13.40;91.60;;;;;;5054417;28;20097;-48
2022/10/27 02:44:50;;;;;;;6.53;2.80;;;13.30;91.80;;;;;;5054431;28;20070;-48
2022/10/27 02:47:16;;;;;;;13.57;3.53;;;13.30;92.00;;;;;;5054484;28;20037;-49
2022/10/27 02:49:43;;;;;;;9.15;3.25;;;13.30;92.10;;;;;;5054694;28;20025;-48
2022/10/27 02:52:09;;;;;;;6.22;2.92;;;13.30;92.30;;;;;;5054203;28;20115;-47
2022/10/27 02:54:35;;;;;;;8.10;3.33;;;13.20;92.30;;;;;;5054466;28;20047;-48
2022/10/27 02:57:00;;;;;;;9.32;3.08;;;13.10;92.40;;;;;;5054223;28;20464;-47
2022/10/27 02:59:26;;;;;;;6.30;2.53;;;13.10;92.50;;;;;;5052894;28;20025;-47
2022/10/27 03:01:51;;;;;;;6.07;3.33;;;13.10;92.60;;;;;;5054320;28;20477;-48
2022/10/27 03:04:17;;;;;;;9.32;3.20;;;13.10;92.70;;;;;;5054094;28;20099;-49
2022/10/27 03:06:43;;;;;;;10.13;3.03;;;13.00;92.70;;;;;;5054082;28;20024;-52
2022/10/27 03:09:08;;;;;;;8.60;2.80;;;13.00;92.90;;;;;;5053110;28;20021;-48
2022/10/27 03:11:34;;;;;;;7.32;3.72;;;13.00;92.90;;;;;;5054213;28;20032;-48
2022/10/27 03:13:59;;;;;;;6.43;3.72;;;13.00;92.90;;;;;;5053928;28;20032;-47
2022/10/27 03:16:25;;;;;;;6.60;2.95;;;12.90;92.90;;;;;;5053242;28;20024;-48
2022/10/27 03:18:51;;;;;;;10.48;3.42;;;12.90;92.90;;;;;;5053846;28;20465;-48
2022/10/27 03:21:16;;;;;;;11.55;3.33;;;12.80;93.00;;;;;;5053918;28;20349;-47
2022/10/27 03:23:42;;;;;;;5.50;2.92;;;12.80;93.10;;;;;;5054772;28;20036;-50
2022/10/27 03:26:08;;;;;;;6.32;3.65;;;12.70;93.20;;;;;;5053957;28;20036;-48
2022/10/27 03:28:34;;;;;;;10.25;3.60;;;12.70;93.30;;;;;;5053649;28;20024;-51
2022/10/27 03:31:00;;;;;;;7.40;3.30;;;12.80;93.30;;;;;;5053900;28;20039;-49
2022/10/27 03:33:26;;;;;;;6.60;4.10;;;12.70;93.50;;;;;;5053962;28;20140;-48
2022/10/27 03:35:52;;;;;;;8.38;4.38;;;12.80;93.50;;;;;;5053714;28;20488;-49
2022/10/27 03:38:18;;;;;;;9.55;3.53;;;12.80;93.50;;;;;;5053465;28;20473;-48
2022/10/27 03:40:43;;;;;;;10.95;3.70;;;12.80;93.50;;;;;;5053722;28;20075;-51
2022/10/27 03:43:10;;;;;;;9.95;4.82;;;12.70;93.40;;;;;;5053881;28;20055;-48
2022/10/27 03:45:36;;;;;;;8.63;3.30;;;12.80;93.50;;;;;;5054327;28;20033;-49
2022/10/27 03:48:06;;;;;;;9.73;3.80;;;12.80;93.40;;;;;;5054537;28;20552;-49
2022/10/27 03:50:32;;;;;;;8.52;3.58;;;12.70;93.40;;;;;;5054722;28;20029;-49
2022/10/27 03:52:59;;;;;;;7.93;3.67;;;12.70;93.30;;;;;;5053927;28;20029;-53
2022/10/27 03:55:25;;;;;;;6.68;4.05;;;12.60;93.40;;;;;;5053945;28;20377;-50
2022/10/27 03:57:51;;;;;;;6.00;3.33;;;12.60;93.50;;;;;;5054365;28;20017;-48
2022/10/27 04:00:17;;;;;;;11.32;3.80;;;12.50;93.50;;;;;;5055082;28;20529;-48
2022/10/27 04:02:43;;;;;;;8.98;4.60;;;12.60;93.50;;;;;;5053672;28;20112;-50
2022/10/27 04:05:09;;;;;;;8.13;4.30;;;12.50;93.50;;;;;;5055321;28;20063;-49
2022/10/27 04:07:34;;;;;;;13.55;3.70;;;12.50;93.50;;;;;;5054785;28;20079;-47
2022/10/27 04:10:00;;;;;;;9.30;3.42;;;12.50;93.50;;;;;;5054531;28;20025;-48
2022/10/27 04:12:26;;;;;;;10.60;4.15;;;12.50;93.50;;;;;;5055260;28;20029;-47
2022/10/27 04:14:51;;;;;;;10.13;4.30;;;12.50;93.50;;;;;;5054711;28;20020;-49
2022/10/27 04:17:18;;;;;;;9.93;4.40;;;12.40;93.50;;;;;;5054708;28;20025;-51
2022/10/27 04:19:43;;;;;;;10.30;4.68;;;12.30;93.50;;;;;;5053880;28;20124;-49
2022/10/27 04:22:09;;;;;;;7.82;3.85;;;12.30;93.60;;;;;;5053652;28;20501;-50
2022/10/27 04:24:35;;;;;;;11.57;4.88;;;12.30;93.60;;;;;;5053299;28;20369;-48
2022/10/27 04:27:00;;;;;;;6.82;3.45;;;12.30;93.60;;;;;;5053436;28;20078;-49
2022/10/27 04:29:26;;;;;;;13.90;3.83;;;12.30;93.70;;;;;;5053225;28;20390;-48
2022/10/27 04:31:52;;;;;;;15.45;4.72;;;12.30;93.70;;;;;;5054415;28;20064;-51
2022/10/27 04:34:17;;;;;;;8.10;3.78;;;12.30;93.80;;;;;;5054899;28;20029;-50
2022/10/27 04:36:43;;;;;;;10.23;4.57;;;12.30;93.80;;;;;;5055032;28;20044;-51
2022/10/27 04:39:12;;;;;;;8.50;3.58;;;12.30;93.80;;;;;;5054133;28;20025;-48
2022/10/27 04:41:39;;;;;;;10.05;3.08;;;12.30;93.90;;;;;;5054070;28;20031;-49
2022/10/27 04:44:05;;;;;;;7.30;4.00;;;12.30;93.90;;;;;;5054708;28;20039;-50
2022/10/27 04:46:31;;;;;;;6.82;3.42;;;12.30;93.90;;;;;;5054342;28;20033;-48
2022/10/27 04:48:56;;;;;;;8.45;4.10;;;12.30;93.90;;;;;;5054419;28;20039;-50
2022/10/27 04:51:22;;;;;;;14.63;4.25;;;12.20;93.90;;;;;;5054031;28;20491;-52
2022/10/27 04:53:48;;;;;;;8.98;4.28;;;12.20;93.90;;;;;;5053197;28;20074;-57
2022/10/27 04:56:13;;;;;;;9.02;3.92;;;12.20;93.90;;;;;;5053014;28;20021;-47
2022/10/27 04:58:39;;;;;;;7.53;3.92;;;12.30;94.00;;;;;;5052721;28;20106;-49
2022/10/27 05:01:07;;;;;;;11.30;3.80;;;12.20;93.90;;;;;;5052956;28;20540;-48
2022/10/27 05:03:32;;;;;;;12.48;4.30;;;12.20;94.00;;;;;;5051340;28;20036;-53
2022/10/27 05:05:58;;;;;;;9.10;3.63;;;12.20;94.00;;;;;;5051215;28;20029;-49
2022/10/27 05:08:24;;;;;;;11.40;3.88;;;12.20;94.00;;;;;;5052590;28;20027;-48
2022/10/27 05:10:49;;;;;;;8.98;3.90;;;12.20;94.00;;;;;;5052745;28;20075;-47
2022/10/27 05:13:15;;;;;;;9.15;3.80;;;12.20;94.00;;;;;;5052434;28;20056;-49
2022/10/27 05:15:41;;;;;;;10.23;4.22;;;12.20;94.00;;;;;;5052253;28;20053;-49
2022/10/27 05:18:06;;;;;;;11.35;4.15;;;12.10;94.00;;;;;;5052217;28;20032;-50
2022/10/27 05:20:32;;;;;;;5.32;3.55;;;12.10;94.00;;;;;;5052139;28;20095;-48
2022/10/27 05:22:57;;;;;;;7.38;3.47;;;12.10;94.00;;;;;;5052177;28;20029;-49
2022/10/27 05:25:23;;;;;;;10.38;3.75;;;12.10;94.10;;;;;;5052293;28;20373;-52
2022/10/27 05:27:49;;;;;;;8.55;3.80;;;12.10;94.10;;;;;;5052315;28;20025;-48
2022/10/27 05:30:14;;;;;;;6.80;3.40;;;12.10;94.00;;;;;;5052512;28;20025;-49
2022/10/27 05:32:40;;;;;;;6.93;3.40;;;12.10;94.00;;;;;;5052152;28;20178;-49
2022/10/27 05:35:06;;;;;;;22.30;4.68;;;12.10;94.10;;;;;;5052523;28;20048;-48
2022/10/27 05:37:32;;;;;;;17.10;3.33;;;12.10;94.10;;;;;;5052628;28;20350;-50
2022/10/27 05:39:59;;;;;;;4.55;3.22;;;12.00;94.00;;;;;;5053117;28;20023;-51
2022/10/27 05:42:25;;;;;;;9.20;4.68;;;12.00;94.10;;;;;;5055640;28;20078;-49
2022/10/27 05:44:51;;;;;;;6.15;3.58;;;12.10;94.10;;;;;;5055987;28;20040;-48
2022/10/27 05:47:17;;;;;;;14.63;4.45;;;12.00;94.00;;;;;;5054416;28;20032;-47
2022/10/27 05:49:42;;;;;;;8.95;3.28;;;12.00;94.10;;;;;;5055592;28;20389;-48
2022/10/27 05:52:08;;;;;;;11.63;4.18;;;12.00;94.10;;;;;;5055881;28;20029;-51
2022/10/27 05:54:34;;;;;;;8.55;3.90;;;12.00;94.00;;;;;;5054716;28;20376;-50
2022/10/27 05:56:59;;;;;;;13.43;4.97;;;12.00;94.10;;;;;;5055692;28;20514;-50
2022/10/27 16:28:15;;;;;;;12.50;3.08;;;20.20;70.00;;;;;;5070728;28;20779;-40
2022/10/27 16:30:42;;;;;;;10.52;2.90;;;20.20;70.20;;;;;;5070627;28;20025;-39
2022/10/27 16:33:21;;;;;;;8.05;3.20;;;20.20;70.30;;;;;;5071680;28;20409;-39
2022/10/27 16:35:47;;;;;;;5.85;3.03;;;20.20;70.40;;;;;;5070261;28;20432;-38
2022/10/27 16:38:14;;;;;;;5.43;2.97;;;20.20;70.30;;;;;;5071915;28;20021;-39
2022/10/27 16:40:41;;;;;;;8.10;3.67;;;20.10;70.70;;;;;;5069112;28;20319;-47
2022/10/27 16:43:27;;;;;;;11.48;3.00;;;20.00;71.10;;;;;;5070172;28;20020;-40
2022/10/27 16:45:53;;;;;;;14.38;3.20;;;20.00;71.20;;;;;;5068637;28;20025;-40
2022/10/27 16:48:19;;;;;;;15.10;3.10;;;20.10;71.00;;;;;;5070176;28;20070;-38
2022/10/27 16:50:45;;;;;;;8.70;2.85;;;20.10;70.90;;;;;;5070127;28;20359;-39
2022/10/27 16:53:11;;;;;;;12.32;3.78;;;20.10;70.80;;;;;;5069989;28;20103;-38
2022/10/27 16:55:37;;;;;;;12.25;4.25;;;20.00;71.00;;;;;;5070781;28;20441;-40
2022/10/27 16:58:02;;;;;;;5.18;3.63;;;20.10;70.80;;;;;;5071312;28;20103;-39
2022/10/27 17:00:28;;;;;;;8.13;3.50;;;20.00;71.10;;;;;;5074828;28;20096;-38
2022/10/27 17:02:54;;;;;;;7.28;2.70;;;20.00;71.20;;;;;;5074457;28;20020;-38
2022/10/27 17:05:20;;;;;;;14.77;3.47;;;20.10;70.90;;;;;;5072569;28;20032;-38
2022/10/27 17:07:46;;;;;;;18.20;3.72;;;20.10;70.60;;;;;;5071158;28;20076;-38
2022/10/27 17:10:12;;;;;;;10.43;4.03;;;20.00;71.00;;;;;;5070959;28;20366;-39
2022/10/27 17:12:38;;;;;;;17.27;5.47;;;19.80;71.40;;;;;;5069715;28;20058;-39
2022/10/27 17:15:04;;;;;;;10.52;3.20;;;19.80;71.60;;;;;;5072723;28;20029;-39
2022/10/27 17:17:29;;;;;;;9.65;4.15;;;19.80;71.80;;;;;;5071897;28;20029;-42
2022/10/27 17:19:55;;;;;;;5.00;3.00;;;19.90;71.50;;;;;;5071340;28;20366;-38
2022/10/27 17:22:21;;;;;;;17.63;3.53;;;20.00;71.00;;;;;;5071007;28;20024;-39
2022/10/27 17:24:46;;;;;;;9.32;3.60;;;20.00;71.00;;;;;;5071407;28;20024;-47
2022/10/27 17:27:12;;;;;;;10.02;3.08;;;20.10;70.80;;;;;;5071797;28;20040;-39
2022/10/27 17:29:37;;;;;;;10.68;3.78;;;20.10;71.00;;;;;;5069319;28;20437;-37
2022/10/27 17:32:03;;;;;;;16.95;5.18;;;20.00;70.90;;;;;;5068960;28;20029;-38
2022/10/27 17:34:30;;;;;;;4.43;2.85;;;19.90;71.30;;;;;;5067880;28;20105;-39
2022/10/27 17:36:57;;;;;;;10.32;4.50;;;19.90;71.30;;;;;;5068302;28;20095;-39
2022/10/27 17:39:22;;;;;;;7.25;3.10;;;19.80;71.60;;;;;;5057072;28;20025;-39
2022/10/27 17:41:48;;;;;;;7.43;3.50;;;19.90;71.70;;;;;;5057572;28;20061;-49
2022/10/27 17:44:14;;;;;;;12.90;3.10;;;19.80;71.70;;;;;;5059769;28;20393;-48
2022/10/27 17:46:39;;;;;;;9.27;3.28;;;19.90;71.90;;;;;;5057115;28;20075;-49
2022/10/27 17:49:05;;;;;;;9.93;2.65;;;20.10;71.40;;;;;;5058583;28;20522;-49
2022/10/27 17:51:32;;;;;;;8.10;2.80;;;20.10;71.00;;;;;;5056811;28;20100;-50
2022/10/27 17:53:59;;;;;;;12.13;3.33;;;20.10;71.20;;;;;;5056659;28;20029;-48
2022/10/27 17:56:31;;;;;;;8.23;3.13;;;20.10;71.20;;;;;;5056505;28;20021;-48
2022/10/27 17:58:56;;;;;;;6.53;3.00;;;20.10;71.30;;;;;;5057883;28;20095;-40
2022/10/27 18:01:27;;;;;;;12.40;3.70;;;20.00;71.60;;;;;;5055929;28;20045;-38
2022/10/27 18:03:55;;;;;;;6.53;2.92;;;20.00;71.70;;;;;;5055089;28;20029;-38
2022/10/27 18:06:24;;;;;;;13.60;4.28;;;20.10;71.50;;;;;;5059662;28;20041;-48
2022/10/27 18:08:53;;;;;;;16.67;4.70;;;20.20;71.20;;;;;;5058640;28;20051;-48
2022/10/27 18:11:21;;;;;;;13.10;4.22;;;20.10;71.60;;;;;;5055801;28;20397;-48
2022/10/27 18:13:48;;;;;;;13.43;3.35;;;20.20;71.30;;;;;;5055131;28;20017;-50
2022/10/27 18:16:23;;;;;;;10.50;4.88;;;20.20;71.10;;;;;;5055140;28;20326;-48
2022/10/27 18:18:59;;;;;;;9.32;2.92;;;20.10;71.40;;;;;;5054756;28;20043;-50
2022/10/27 18:21:26;;;;;;;9.52;3.20;;;20.00;71.70;;;;;;5054929;28;20017;-49
2022/10/27 18:23:57;;;;;;;13.15;3.30;;;20.10;71.60;;;;;;5054862;28;20028;-50
2022/10/27 18:26:23;;;;;;;8.98;3.33;;;20.10;71.70;;;;;;5053177;28;20128;-50
2022/10/27 18:28:49;;;;;;;14.07;3.70;;;20.00;72.10;;;;;;5055084;28;20488;-49
2022/10/27 18:31:18;;;;;;;8.73;4.80;;;20.00;72.00;;;;;;5055176;28;20020;-50
2022/10/27 18:33:44;;;;;;;10.18;3.67;;;19.80;72.30;;;;;;5056652;28;20029;-51
2022/10/27 18:36:18;;;;;;;13.55;3.25;;;19.80;72.60;;;;;;5054998;28;20029;-48
2022/10/27 18:38:47;;;;;;;7.90;3.78;;;19.80;72.80;;;;;;5054809;28;20023;-49
2022/10/27 18:41:15;;;;;;;11.13;3.58;;;19.70;73.00;;;;;;5054691;28;20512;-49
2022/10/27 18:43:45;;;;;;;14.20;3.85;;;19.70;73.20;;;;;;5054285;28;20048;-47
2022/10/27 18:46:12;;;;;;;9.18;3.38;;;19.70;73.20;;;;;;5054338;28;20025;-49
2022/10/27 18:48:38;;;;;;;12.77;4.65;;;19.60;73.50;;;;;;5054572;28;20041;-50
2022/10/27 18:51:06;;;;;;;11.40;5.78;;;19.50;73.80;;;;;;5054919;28;20025;-50
2022/10/27 18:53:33;;;;;;;10.48;3.42;;;19.50;73.80;;;;;;5053846;28;20036;-49
2022/10/27 18:56:04;;;;;;;7.70;3.33;;;19.40;74.40;;;;;;5054451;28;20481;-50
2022/10/27 18:58:31;;;;;;;8.55;4.25;;;19.40;74.60;;;;;;5054306;28;20025;-49
2022/10/27 19:01:08;;;;;;;8.45;3.70;;;19.40;74.70;;;;;;5054582;28;20043;-47
2022/10/27 19:03:34;;;;;;;7.65;3.30;;;19.30;74.50;;;;;;5053032;28;20021;-53
2022/10/27 19:06:02;;;;;;;7.45;3.42;;;19.30;75.00;;;;;;5053984;28;20102;-49
2022/10/27 19:08:28;;;;;;;9.05;4.05;;;19.20;75.30;;;;;;5054434;28;20052;-49
2022/10/27 19:10:54;;;;;;;9.18;3.92;;;19.30;75.10;;;;;;5054218;28;20025;-50
2022/10/27 19:13:20;;;;;;;7.55;3.35;;;19.30;75.00;;;;;;5054321;28;20079;-38
2022/10/27 19:15:46;;;;;;;11.45;3.85;;;19.10;75.50;;;;;;5054203;28;20024;-38
2022/10/27 19:18:11;;;;;;;9.85;3.55;;;19.10;75.60;;;;;;5053864;28;20029;-38
2022/10/27 19:20:37;;;;;;;11.15;4.10;;;19.00;75.80;;;;;;5053692;28;20078;-39
2022/10/27 19:23:03;;;;;;;21.40;4.75;;;18.90;76.10;;;;;;5054194;28;20465;-39
2022/10/27 19:25:31;;;;;;;15.05;4.30;;;18.80;76.30;;;;;;5053891;28;20021;-49
2022/10/27 19:28:00;;;;;;;7.45;4.18;;;18.70;77.00;;;;;;5053906;28;20397;-48
2022/10/27 19:30:26;;;;;;;15.80;4.43;;;18.80;76.50;;;;;;5059809;28;20044;-49
2022/10/27 19:32:52;;;;;;;12.02;4.80;;;18.70;76.90;;;;;;5060226;28;20025;-51
2022/10/27 19:35:18;;;;;;;11.68;3.80;;;18.50;77.30;;;;;;5063064;28;20074;-48
2022/10/27 19:37:44;;;;;;;6.85;3.65;;;18.40;77.70;;;;;;5059617;28;20049;-49
2022/10/27 19:40:10;;;;;;;8.00;3.75;;;18.30;78.00;;;;;;5056197;28;20036;-49
2022/10/27 19:42:36;;;;;;;11.18;4.97;;;18.30;78.20;;;;;;5053686;28;20033;-39
2022/10/27 19:45:05;;;;;;;13.73;4.10;;;18.30;78.40;;;;;;5053851;28;20480;-38
2022/10/27 19:47:31;;;;;;;8.65;3.95;;;18.30;78.40;;;;;;5053928;28;20358;-38
2022/10/27 19:49:57;;;;;;;8.40;4.43;;;18.20;78.70;;;;;;5054380;28;20021;-39
2022/10/27 19:52:22;;;;;;;11.32;4.20;;;18.20;78.80;;;;;;5053498;28;20045;-39
2022/10/27 19:54:48;;;;;;;12.10;4.68;;;18.20;78.70;;;;;;5052764;28;20029;-38
2022/10/27 19:57:14;;;;;;;13.23;4.18;;;18.20;78.80;;;;;;5053102;28;20057;-37
2022/10/27 19:59:41;;;;;;;11.30;3.78;;;18.00;79.20;;;;;;5053899;28;20416;-48
2022/10/27 20:02:09;;;;;;;9.52;5.07;;;17.90;79.90;;;;;;5053054;28;20112;-52
2022/10/27 20:04:36;;;;;;;9.30;4.15;;;18.00;79.70;;;;;;5053267;28;20539;-48
2022/10/27 20:07:03;;;;;;;12.30;3.67;;;17.80;80.00;;;;;;5053265;28;20469;-49
2022/10/27 20:09:29;;;;;;;9.18;4.20;;;18.00;79.60;;;;;;5053160;28;20104;-48
2022/10/27 20:11:55;;;;;;;7.75;3.85;;;17.90;79.70;;;;;;5053630;28;20425;-50
2022/10/27 20:14:21;;;;;;;11.60;5.30;;;17.90;79.90;;;;;;5053581;28;20100;-49
2022/10/27 20:16:47;;;;;;;7.90;3.80;;;17.90;79.90;;;;;;5052911;28;20109;-51
2022/10/27 20:19:15;;;;;;;9.00;4.10;;;17.90;79.60;;;;;;5051756;28;20471;-49
2022/10/27 20:21:41;;;;;;;9.32;4.10;;;17.80;80.10;;;;;;5052994;28;20465;-49
2022/10/27 20:24:16;;;;;;;10.43;5.13;;;18.10;79.80;;;;;;5053972;28;20054;-48
2022/10/27 20:26:46;;;;;;;11.10;4.60;;;18.00;79.70;;;;;;5053093;28;20049;-52
2022/10/27 20:29:12;;;;;;;23.58;5.88;;;18.00;79.40;;;;;;5053050;28;20017;-51
2022/10/27 20:31:38;;;;;;;10.82;5.68;;;17.80;79.90;;;;;;5051245;28;20033;-49
2022/10/27 20:34:09;;;;;;;12.93;7.85;;;17.70;80.40;;;;;;5055694;28;20079;-48
2022/10/27 20:36:36;;;;;;;17.58;8.50;;;17.50;80.70;;;;;;5058888;28;20053;-48
2022/10/27 20:39:03;;;;;;;19.10;8.80;;;17.40;81.20;;;;;;5053521;28;20108;-49
2022/10/27 20:41:28;;;;;;;15.48;6.47;;;17.30;82.10;;;;;;5052877;28;20044;-52
2022/10/27 20:43:59;;;;;;;19.08;7.63;;;17.30;82.50;;;;;;5051738;28;20420;-44
2022/10/27 20:46:27;;;;;;;11.68;4.60;;;17.50;81.60;;;;;;5052030;28;20108;-52
2022/10/27 20:48:54;;;;;;;18.65;5.72;;;17.80;80.60;;;;;;5053514;28;20032;-51
2022/10/27 20:51:21;;;;;;;12.95;5.32;;;18.00;79.80;;;;;;5052567;28;20053;-49
2022/10/27 20:53:54;;;;;;;12.13;4.53;;;18.00;79.80;;;;;;5052513;28;20357;-39
2022/10/27 20:56:28;;;;;;;15.15;5.47;;;17.90;79.90;;;;;;5052356;28;20025;-39
2022/10/27 20:58:55;;;;;;;15.90;7.63;;;17.80;80.30;;;;;;5052797;28;20032;-40
2022/10/27 21:01:23;;;;;;;13.57;4.90;;;17.80;80.40;;;;;;5052298;28;20032;-39
2022/10/27 21:03:53;;;;;;;10.10;4.20;;;17.80;80.60;;;;;;5052945;28;20107;-49
2022/10/27 21:06:19;;;;;;;;;;;17.80;80.60;;;;;;5052600;28;20025;-49
2022/10/27 21:08:46;;;;;;;9.77;3.97;;;17.80;80.50;;;;;;5052452;28;19950;-48
2022/10/27 21:11:11;;;;;;;10.60;3.50;;;17.80;80.60;;;;;;5052608;28;20246;-47
2022/10/27 21:13:37;;;;;;;10.27;4.07;;;17.80;80.80;;;;;;5053999;28;20571;-47
2022/10/27 21:16:03;;;;;;;12.38;4.28;;;17.80;80.80;;;;;;5055751;28;20028;-48
2022/10/27 21:18:28;;;;;;;13.75;4.85;;;17.80;80.70;;;;;;5056069;28;20021;-49
2022/10/27 21:20:54;;;;;;;4.90;3.05;;;17.90;80.70;;;;;;5054536;28;20418;-50
2022/10/27 21:23:20;;;;;;;13.07;5.40;;;17.90;80.20;;;;;;5054541;28;20032;-47
2022/10/27 21:25:46;;;;;;;14.52;4.60;;;17.90;80.50;;;;;;5054438;28;20112;-48
2022/10/27 21:28:11;;;;;;;7.13;3.88;;;17.90;80.10;;;;;;5055451;28;20349;-49
2022/10/27 21:30:37;;;;;;;15.93;4.55;;;17.80;80.60;;;;;;5055687;28;20116;-48
2022/10/27 21:33:03;;;;;;;9.68;4.03;;;17.80;80.60;;;;;;5055504;28;20033;-49
2022/10/27 21:35:28;;;;;;;9.00;3.97;;;17.80;81.00;;;;;;5055397;28;20094;-51
2022/10/27 21:37:55;;;;;;;8.00;4.72;;;17.90;80.40;;;;;;5055485;28;20025;-48
2022/10/27 21:40:21;;;;;;;11.85;4.03;;;17.90;80.70;;;;;;5054043;28;20035;-48
2022/10/27 21:42:47;;;;;;;15.50;4.93;;;17.90;80.30;;;;;;5055728;28;20025;-50
2022/10/27 21:45:13;;;;;;;9.40;3.83;;;18.00;80.00;;;;;;5057110;28;20373;-41
2022/10/27 21:47:39;;;;;;;9.48;3.80;;;18.00;80.10;;;;;;5056218;28;20469;-39
2022/10/27 21:50:07;;;;;;;11.20;4.28;;;18.00;80.20;;;;;;5055499;28;20025;-38
2022/10/27 21:52:32;;;;;;;7.47;3.47;;;18.10;79.70;;;;;;5055303;28;20516;-38
2022/10/27 21:54:58;;;;;;;11.10;4.18;;;18.00;80.00;;;;;;5037381;28;20136;-38
2022/10/27 21:57:24;;;;;;;13.30;4.28;;;18.10;79.80;;;;;;5055350;28;20032;-38
2022/10/27 21:59:49;;;;;;;13.90;4.57;;;18.10;79.70;;;;;;5055431;28;20033;-47
2022/10/27 22:02:15;;;;;;;12.80;4.32;;;18.20;79.60;;;;;;5055489;28;20075;-38
2022/10/27 22:04:41;;;;;;;21.85;4.53;;;18.20;79.70;;;;;;5055127;28;20100;-37
2022/10/27 22:07:06;;;;;;;18.92;5.05;;;18.20;79.40;;;;;;5055194;28;20021;-40
2022/10/27 22:09:32;;;;;;;14.10;6.05;;;18.20;79.40;;;;;;5054893;28;20105;-39
2022/10/27 22:11:58;;;;;;;10.73;3.97;;;18.30;79.40;;;;;;5053711;28;20025;-38
2022/10/27 22:14:23;;;;;;;9.60;3.92;;;18.30;79.00;;;;;;5054212;28;20028;-38
2022/10/27 22:16:49;;;;;;;10.25;3.47;;;18.30;79.00;;;;;;5053851;28;20040;-38
2022/10/27 22:19:18;;;;;;;17.45;4.75;;;18.40;78.80;;;;;;5055021;28;20025;-38
2022/10/27 22:21:44;;;;;;;17.70;5.75;;;18.40;78.80;;;;;;5055318;28;20101;-39
2022/10/27 22:24:10;;;;;;;12.07;4.88;;;18.40;79.20;;;;;;5054423;28;20107;-38
2022/10/27 22:26:39;;;;;;;11.70;3.60;;;18.40;79.10;;;;;;5055238;28;20029;-52
2022/10/27 22:29:05;;;;;;;11.23;4.20;;;18.40;79.10;;;;;;5055028;28;20021;-49
2022/10/27 22:31:31;;;;;;;9.75;4.53;;;18.40;79.20;;;;;;5054902;28;20036;-49
2022/10/27 22:33:58;;;;;;;12.48;4.97;;;18.50;79.30;;;;;;5053657;28;20032;-51
2022/10/27 22:36:24;;;;;;;7.75;4.00;;;18.50;79.40;;;;;;5054769;28;20086;-49
2022/10/27 22:38:56;;;;;;;11.15;4.40;;;18.30;79.80;;;;;;5054828;28;20029;-48
2022/10/27 22:41:22;;;;;;;9.40;4.60;;;18.30;80.10;;;;;;5055025;28;20040;-50
2022/10/27 22:43:48;;;;;;;11.70;5.55;;;18.20;80.20;;;;;;5054694;28;20036;-48
2022/10/27 22:46:19;;;;;;;14.73;4.60;;;18.20;80.40;;;;;;5054504;28;20108;-51
2022/10/27 22:48:45;;;;;;;15.13;5.10;;;18.10;80.70;;;;;;5054873;28;20536;-50
2022/10/27 22:51:12;;;;;;;18.25;5.53;;;18.00;80.90;;;;;;5054620;28;20457;-49
2022/10/27 22:53:40;;;;;;;10.52;4.22;;;18.10;80.90;;;;;;5054389;28;20032;-50
2022/10/27 22:56:10;;;;;;;11.43;4.05;;;18.10;80.90;;;;;;5054283;28;20132;-49
2022/10/27 22:58:36;;;;;;;12.88;4.07;;;18.10;80.80;;;;;;5054714;28;20104;-48
2022/10/27 23:01:07;;;;;;;6.72;3.30;;;18.20;80.50;;;;;;5054448;28;20116;-50
2022/10/27 23:03:33;;;;;;;18.92;5.53;;;18.20;80.30;;;;;;5054431;28;20028;-48
2022/10/27 23:05:59;;;;;;;16.45;3.83;;;18.20;80.40;;;;;;5054091;28;20388;-49
2022/10/27 23:08:25;;;;;;;9.00;4.63;;;18.20;80.40;;;;;;5053201;28;20017;-48
2022/10/27 23:10:58;;;;;;;13.40;3.83;;;18.20;80.20;;;;;;5054341;28;20104;-51
2022/10/27 23:13:25;;;;;;;9.70;3.85;;;18.20;80.40;;;;;;5054115;28;20017;-48